sensor_id;sensor_type;location;lat;lon;timestamp;pressure;altitude;pressure_sealevel;temperature;humidity
9839;BME280;4958;48.150;11.506;2023-10-09T00:01:25;96157.41;;;17.70;69.30
9839;BME280;4958;48.150;11.506;2023-10-09T00:03:52;96155.59;;;17.70;69.12
9839;BME280;4958;48.150;11.506;2023-10-09T00:06:19;96160.41;;;17.67;69.39
9839;BME280;4958;48.150;11.506;2023-10-09T00:08:55;96156.00;;;17.67;69.23
9839;BME280;4958;48.150;11.506;2023-10-09T00:11:22;96167.41;;;17.59;69.89
9839;BME280;4958;48.150;11.506;2023-10-09T00:13:56;96162.00;;;17.61;69.59
9839;BME280;4958;48.150;11.506;2023-10-09T00:16:24;96159.81;;;17.58;69.76
9839;BME280;4958;48.150;11.506;2023-10-09T00:18:59;96168.22;;;17.53;69.96
9839;BME280;4958;48.150;11.506;2023-10-09T00:21:40;96161.66;;;17.51;70.22
9839;BME280;4958;48.150;11.506;2023-10-09T00:24:07;96154.59;;;17.51;70.07
9839;BME280;4958;48.150;11.506;2023-10-09T00:26:39;96142.56;;;17.57;69.83
9839;BME280;4958;48.150;11.506;2023-10-09T00:29:11;96134.56;;;17.58;69.52
9839;BME280;4958;48.150;11.506;2023-10-09T00:31:41;96120.13;;;17.63;69.30
9839;BME280;4958;48.150;11.506;2023-10-09T00:34:15;96109.72;;;17.63;69.30
9839;BME280;4958;48.150;11.506;2023-10-09T00:36:44;96098.72;;;17.67;68.79
9839;BME280;4958;48.150;11.506;2023-10-09T00:39:16;96088.09;;;17.69;68.78
9839;BME280;4958;48.150;11.506;2023-10-09T00:41:55;96089.09;;;17.68;68.41
9839;BME280;4958;48.150;11.506;2023-10-09T00:44:25;96066.25;;;17.70;68.43
9839;BME280;4958;48.150;11.506;2023-10-09T00:47:03;96059.44;;;17.69;67.93
9839;BME280;4958;48.150;11.506;2023-10-09T00:49:36;96049.22;;;17.67;68.01
9839;BME280;4958;48.150;11.506;2023-10-09T00:52:08;96042.00;;;17.69;67.63
9839;BME280;4958;48.150;11.506;2023-10-09T00:54:47;96019.38;;;17.70;67.34
9839;BME280;4958;48.150;11.506;2023-10-09T00:57:18;96006.91;;;17.72;66.95
9839;BME280;4958;48.150;11.506;2023-10-09T00:59:54;95991.88;;;17.74;66.46
9839;BME280;4958;48.150;11.506;2023-10-09T01:02:26;95978.44;;;17.77;66.02
9839;BME280;4958;48.150;11.506;2023-10-09T01:05:01;95967.81;;;17.78;65.87
9839;BME280;4958;48.150;11.506;2023-10-09T01:07:37;95957.97;;;17.80;65.73
9839;BME280;4958;48.150;11.506;2023-10-09T01:10:06;95938.72;;;17.81;65.36
9839;BME280;4958;48.150;11.506;2023-10-09T01:12:53;95932.31;;;17.84;65.19
9839;BME280;4958;48.150;11.506;2023-10-09T01:15:21;95936.72;;;17.83;65.42
9839;BME280;4958;48.150;11.506;2023-10-09T01:18:02;95929.91;;;17.82;65.17
9839;BME280;4958;48.150;11.506;2023-10-09T01:20:32;95927.88;;;17.84;65.03
9839;BME280;4958;48.150;11.506;2023-10-09T01:23:09;95922.69;;;17.84;65.11
9839;BME280;4958;48.150;11.506;2023-10-09T01:25:35;95921.09;;;17.83;65.10
9839;BME280;4958;48.150;11.506;2023-10-09T01:28:09;95912.25;;;17.84;64.82
9839;BME280;4958;48.150;11.506;2023-10-09T01:30:35;95903.44;;;17.85;64.62
9839;BME280;4958;48.150;11.506;2023-10-09T01:33:07;95907.84;;;17.85;64.77
9839;BME280;4958;48.150;11.506;2023-10-09T01:35:37;95909.66;;;17.84;64.94
9839;BME280;4958;48.150;11.506;2023-10-09T01:38:13;95914.66;;;17.86;64.95
9839;BME280;4958;48.150;11.506;2023-10-09T01:40:40;95903.22;;;17.87;64.82
9839;BME280;4958;48.150;11.506;2023-10-09T01:43:08;95905.03;;;17.86;64.80
9839;BME280;4958;48.150;11.506;2023-10-09T01:45:35;95902.63;;;17.85;64.87
9839;BME280;4958;48.150;11.506;2023-10-09T01:48:07;95902.63;;;17.85;64.79
9839;BME280;4958;48.150;11.506;2023-10-09T01:50:34;95901.84;;;17.84;65.19
9839;BME280;4958;48.150;11.506;2023-10-09T01:53:02;95888.59;;;17.86;64.86
9839;BME280;4958;48.150;11.506;2023-10-09T01:55:32;95886.78;;;17.86;65.00
9839;BME280;4958;48.150;11.506;2023-10-09T01:58:04;95900.16;;;17.90;64.83
9839;BME280;4958;48.150;11.506;2023-10-09T02:00:33;95896.56;;;17.91;64.92
9839;BME280;4958;48.150;11.506;2023-10-09T02:03:07;95894.19;;;17.89;64.93
9839;BME280;4958;48.150;11.506;2023-10-09T02:05:41;95893.16;;;17.90;65.07
9839;BME280;4958;48.150;11.506;2023-10-09T02:08:08;95900.41;;;17.88;65.23
9839;BME280;4958;48.150;11.506;2023-10-09T02:10:39;95899.59;;;17.88;65.41
9839;BME280;4958;48.150;11.506;2023-10-09T02:13:09;95892.34;;;17.90;65.29
9839;BME280;4958;48.150;11.506;2023-10-09T02:15:37;95896.56;;;17.91;65.41
9839;BME280;4958;48.150;11.506;2023-10-09T02:18:11;95909.56;;;17.91;65.75
9839;BME280;4958;48.150;11.506;2023-10-09T02:20:44;95898.16;;;17.92;65.62
9839;BME280;4958;48.150;11.506;2023-10-09T02:23:12;95896.56;;;17.91;65.58
9839;BME280;4958;48.150;11.506;2023-10-09T02:25:40;95895.19;;;17.88;65.68
9839;BME280;4958;48.150;11.506;2023-10-09T02:28:08;95898.16;;;17.92;65.60
9839;BME280;4958;48.150;11.506;2023-10-09T02:30:42;95888.91;;;17.96;65.48
9839;BME280;4958;48.150;11.506;2023-10-09T02:33:12;95881.66;;;17.98;65.32
9839;BME280;4958;48.150;11.506;2023-10-09T02:35:43;95892.09;;;17.98;65.53
9839;BME280;4958;48.150;11.506;2023-10-09T02:38:10;95887.66;;;17.99;65.34
9839;BME280;4958;48.150;11.506;2023-10-09T02:40:41;95894.31;;;17.94;65.42
9839;BME280;4958;48.150;11.506;2023-10-09T02:43:26;95896.13;;;17.94;65.68
9839;BME280;4958;48.150;11.506;2023-10-09T02:45:56;95895.13;;;17.95;65.74
9839;BME280;4958;48.150;11.506;2023-10-09T02:48:22;95890.13;;;17.93;65.74
9839;BME280;4958;48.150;11.506;2023-10-09T02:50:52;95887.09;;;17.97;65.56
9839;BME280;4958;48.150;11.506;2023-10-09T02:53:19;95893.94;;;17.91;66.02
9839;BME280;4958;48.150;11.506;2023-10-09T02:55:55;95884.31;;;17.91;65.85
9839;BME280;4958;48.150;11.506;2023-10-09T02:58:37;95896.00;;;17.89;66.00
9839;BME280;4958;48.150;11.506;2023-10-09T03:01:09;95888.19;;;17.89;66.01
9839;BME280;4958;48.150;11.506;2023-10-09T03:03:35;95885.41;;;17.84;66.07
9839;BME280;4958;48.150;11.506;2023-10-09T03:06:03;95884.19;;;17.86;65.99
9839;BME280;4958;48.150;11.506;2023-10-09T03:08:36;95877.75;;;17.89;65.65
9839;BME280;4958;48.150;11.506;2023-10-09T03:11:04;95865.75;;;17.88;65.66
9839;BME280;4958;48.150;11.506;2023-10-09T03:13:31;95863.25;;;17.93;65.46
9839;BME280;4958;48.150;11.506;2023-10-09T03:15:58;95862.84;;;17.96;65.29
9839;BME280;4958;48.150;11.506;2023-10-09T03:18:27;95857.84;;;17.94;65.32
9839;BME280;4958;48.150;11.506;2023-10-09T03:20:53;95840.41;;;17.95;64.98
9839;BME280;4958;48.150;11.506;2023-10-09T03:23:21;95834.97;;;17.97;64.87
9839;BME280;4958;48.150;11.506;2023-10-09T03:25:48;95818.91;;;18.00;64.68
9839;BME280;4958;48.150;11.506;2023-10-09T03:28:16;95814.56;;;17.93;64.45
9839;BME280;4958;48.150;11.506;2023-10-09T03:30:42;95800.53;;;17.94;64.49
9839;BME280;4958;48.150;11.506;2023-10-09T03:33:13;95796.53;;;17.92;64.40
9839;BME280;4958;48.150;11.506;2023-10-09T03:35:40;95787.72;;;17.93;64.10
9839;BME280;4958;48.150;11.506;2023-10-09T03:38:06;95795.09;;;17.96;64.17
9839;BME280;4958;48.150;11.506;2023-10-09T03:40:41;95790.47;;;17.98;64.25
9839;BME280;4958;48.150;11.506;2023-10-09T03:43:07;95790.09;;;17.94;64.14
9839;BME280;4958;48.150;11.506;2023-10-09T03:45:36;95786.34;;;17.90;64.01
9839;BME280;4958;48.150;11.506;2023-10-09T03:48:10;95790.91;;;17.95;63.94
9839;BME280;4958;48.150;11.506;2023-10-09T03:50:51;95795.25;;;18.01;63.96
9839;BME280;4958;48.150;11.506;2023-10-09T03:53:33;95790.03;;;18.01;63.91
9839;BME280;4958;48.150;11.506;2023-10-09T03:56:01;95784.63;;;18.03;63.97
9839;BME280;4958;48.150;11.506;2023-10-09T03:58:30;95794.47;;;18.01;64.09
9839;BME280;4958;48.150;11.506;2023-10-09T04:01:00;95788.88;;;17.97;64.02
9839;BME280;4958;48.150;11.506;2023-10-09T04:03:27;95792.88;;;18.00;64.13
9839;BME280;4958;48.150;11.506;2023-10-09T04:05:54;95794.88;;;17.98;64.21
9839;BME280;4958;48.150;11.506;2023-10-09T04:08:21;95804.50;;;17.97;64.14
9839;BME280;4958;48.150;11.506;2023-10-09T04:10:54;95807.97;;;17.91;64.41
9839;BME280;4958;48.150;11.506;2023-10-09T04:13:26;95840.50;;;17.88;65.09
9839;BME280;4958;48.150;11.506;2023-10-09T04:16:00;95852.97;;;17.80;65.78
9839;BME280;4958;48.150;11.506;2023-10-09T04:18:34;95875.84;;;17.78;65.89
9839;BME280;4958;48.150;11.506;2023-10-09T04:21:04;95876.69;;;17.72;66.35
9839;BME280;4958;48.150;11.506;2023-10-09T04:23:44;95884.50;;;17.72;66.55
9839;BME280;4958;48.150;11.506;2023-10-09T04:26:35;95880.66;;;17.74;66.54
9839;BME280;4958;48.150;11.506;2023-10-09T04:29:02;95888.91;;;17.71;66.96
9839;BME280;4958;48.150;11.506;2023-10-09T04:31:30;95895.38;;;17.69;66.97
9839;BME280;4958;48.150;11.506;2023-10-09T04:34:03;95886.09;;;17.73;66.73
9839;BME280;4958;48.150;11.506;2023-10-09T04:36:43;95894.34;;;17.70;67.10
9839;BME280;4958;48.150;11.506;2023-10-09T04:39:14;95906.34;;;17.71;67.16
9839;BME280;4958;48.150;11.506;2023-10-09T04:42:01;95897.69;;;17.77;66.83
9839;BME280;4958;48.150;11.506;2023-10-09T04:44:52;95894.44;;;17.81;67.01
9839;BME280;4958;48.150;11.506;2023-10-09T04:47:42;95892.06;;;17.80;67.13
9839;BME280;4958;48.150;11.506;2023-10-09T04:50:23;95890.44;;;17.79;67.09
9839;BME280;4958;48.150;11.506;2023-10-09T04:53:13;95888.88;;;17.78;66.96
9839;BME280;4958;48.150;11.506;2023-10-09T04:55:48;95900.50;;;17.75;67.24
9839;BME280;4958;48.150;11.506;2023-10-09T04:58:19;95891.09;;;17.74;67.13
9839;BME280;4958;48.150;11.506;2023-10-09T05:00:50;95901.28;;;17.76;67.30
9839;BME280;4958;48.150;11.506;2023-10-09T05:03:30;95906.69;;;17.81;67.31
9839;BME280;4958;48.150;11.506;2023-10-09T05:06:09;95919.69;;;17.81;67.50
9839;BME280;4958;48.150;11.506;2023-10-09T05:08:47;95911.28;;;17.79;67.57
9839;BME280;4958;48.150;11.506;2023-10-09T05:11:14;95911.28;;;17.79;67.62
9839;BME280;4958;48.150;11.506;2023-10-09T05:13:57;95917.72;;;17.76;67.47
9839;BME280;4958;48.150;11.506;2023-10-09T05:16:36;95937.84;;;17.69;68.08
9839;BME280;4958;48.150;11.506;2023-10-09T05:19:04;95951.06;;;17.68;68.28
9839;BME280;4958;48.150;11.506;2023-10-09T05:21:34;95953.06;;;17.66;68.43
9839;BME280;4958;48.150;11.506;2023-10-09T05:24:10;95952.88;;;17.67;68.45
9839;BME280;4958;48.150;11.506;2023-10-09T05:26:45;95953.88;;;17.66;68.51
9839;BME280;4958;48.150;11.506;2023-10-09T05:29:17;95962.69;;;17.65;68.62
9839;BME280;4958;48.150;11.506;2023-10-09T05:32:00;95978.91;;;17.60;68.71
9839;BME280;4958;48.150;11.506;2023-10-09T05:34:31;95980.94;;;17.58;68.94
9839;BME280;4958;48.150;11.506;2023-10-09T05:37:21;95993.41;;;17.50;69.38
9839;BME280;4958;48.150;11.506;2023-10-09T05:39:48;96002.44;;;17.47;69.44
9839;BME280;4958;48.150;11.506;2023-10-09T05:42:35;96021.69;;;17.40;70.06
9839;BME280;4958;48.150;11.506;2023-10-09T05:45:09;96086.84;;;17.26;72.42
9839;BME280;4958;48.150;11.506;2023-10-09T05:47:53;96060.81;;;17.20;71.80
9839;BME280;4958;48.150;11.506;2023-10-09T05:50:24;96056.41;;;17.20;71.49
9839;BME280;4958;48.150;11.506;2023-10-09T05:53:00;96055.41;;;17.21;71.35
9839;BME280;4958;48.150;11.506;2023-10-09T05:55:33;96075.88;;;17.11;72.98
9839;BME280;4958;48.150;11.506;2023-10-09T05:58:34;96077.88;;;17.03;72.74
9839;BME280;4958;48.150;11.506;2023-10-09T06:01:23;96070.47;;;17.06;72.63
9839;BME280;4958;48.150;11.506;2023-10-09T06:04:07;96055.63;;;17.13;72.20
9839;BME280;4958;48.150;11.506;2023-10-09T06:06:42;96058.41;;;17.18;71.76
9839;BME280;4958;48.150;11.506;2023-10-09T06:09:12;96051.41;;;17.25;71.49
9839;BME280;4958;48.150;11.506;2023-10-09T06:12:13;96037.13;;;17.35;71.29
9839;BME280;4958;48.150;11.506;2023-10-09T06:14:57;96045.50;;;17.43;71.11
9839;BME280;4958;48.150;11.506;2023-10-09T06:17:43;96032.22;;;17.65;70.52
9839;BME280;4958;48.150;11.506;2023-10-09T06:20:10;96004.06;;;17.80;69.53
9839;BME280;4958;48.150;11.506;2023-10-09T06:22:52;95994.03;;;17.83;69.05
9839;BME280;4958;48.150;11.506;2023-10-09T06:25:29;95981.31;;;17.93;68.62
9839;BME280;4958;48.150;11.506;2023-10-09T06:27:58;95962.00;;;18.01;67.89
9839;BME280;4958;48.150;11.506;2023-10-09T06:30:26;95933.34;;;18.01;67.13
9839;BME280;4958;48.150;11.506;2023-10-09T06:32:53;95916.91;;;18.01;66.72
9839;BME280;4958;48.150;11.506;2023-10-09T06:35:44;95892.25;;;18.03;65.95
9839;BME280;4958;48.150;11.506;2023-10-09T06:38:20;95887.75;;;18.10;65.69
9839;BME280;4958;48.150;11.506;2023-10-09T06:41:05;95866.69;;;18.12;65.30
9839;BME280;4958;48.150;11.506;2023-10-09T06:44:00;95847.06;;;18.09;64.69
9839;BME280;4958;48.150;11.506;2023-10-09T06:46:31;95821.47;;;18.06;64.01
9839;BME280;4958;48.150;11.506;2023-10-09T06:49:10;95818.84;;;18.06;63.92
9839;BME280;4958;48.150;11.506;2023-10-09T06:51:54;95807.84;;;18.04;63.82
9839;BME280;4958;48.150;11.506;2023-10-09T06:54:40;95808.13;;;18.14;63.57
9839;BME280;4958;48.150;11.506;2023-10-09T06:57:15;95794.44;;;18.19;63.22
9839;BME280;4958;48.150;11.506;2023-10-09T07:00:02;95792.00;;;18.24;62.82
9839;BME280;4958;48.150;11.506;2023-10-09T07:02:46;95781.94;;;18.27;62.77
9839;BME280;4958;48.150;11.506;2023-10-09T07:05:15;95771.81;;;18.31;62.66
9839;BME280;4958;48.150;11.506;2023-10-09T07:07:43;95762.78;;;18.34;62.19
9839;BME280;4958;48.150;11.506;2023-10-09T07:10:21;95771.31;;;18.41;62.27
9839;BME280;4958;48.150;11.506;2023-10-09T07:12:59;95759.56;;;18.50;61.95
9839;BME280;4958;48.150;11.506;2023-10-09T07:15:28;95762.25;;;18.61;61.87
9839;BME280;4958;48.150;11.506;2023-10-09T07:18:12;95739.25;;;18.70;61.22
9839;BME280;4958;48.150;11.506;2023-10-09T07:21:06;95742.56;;;18.77;61.16
9839;BME280;4958;48.150;11.506;2023-10-09T07:23:37;95719.78;;;18.84;60.69
9839;BME280;4958;48.150;11.506;2023-10-09T07:26:17;95711.38;;;18.94;60.20
9839;BME280;4958;48.150;11.506;2023-10-09T07:28:45;95686.09;;;18.94;59.91
9839;BME280;4958;48.150;11.506;2023-10-09T07:31:21;95668.28;;;19.15;59.35
9839;BME280;4958;48.150;11.506;2023-10-09T07:34:04;95631.63;;;19.21;58.45
9839;BME280;4958;48.150;11.506;2023-10-09T07:36:51;95628.19;;;19.32;58.33
9839;BME280;4958;48.150;11.506;2023-10-09T07:39:21;95614.09;;;19.57;57.68
9839;BME280;4958;48.150;11.506;2023-10-09T07:41:50;95539.16;;;20.19;55.81
9839;BME280;4958;48.150;11.506;2023-10-09T07:44:27;95479.00;;;20.53;54.62
9839;BME280;4958;48.150;11.506;2023-10-09T07:47:07;95486.72;;;20.64;54.99
9839;BME280;4958;48.150;11.506;2023-10-09T07:49:44;95488.63;;;20.69;54.95
9839;BME280;4958;48.150;11.506;2023-10-09T07:52:14;95462.47;;;20.69;54.25
9839;BME280;4958;48.150;11.506;2023-10-09T07:54:41;95424.19;;;20.63;54.19
9839;BME280;4958;48.150;11.506;2023-10-09T07:57:20;95422.31;;;20.58;53.87
9839;BME280;4958;48.150;11.506;2023-10-09T07:59:53;95427.56;;;20.58;53.79
9839;BME280;4958;48.150;11.506;2023-10-09T08:02:37;95411.78;;;20.53;53.52
9839;BME280;4958;48.150;11.506;2023-10-09T08:05:04;95424.94;;;20.58;54.03
9839;BME280;4958;48.150;11.506;2023-10-09T08:07:32;95412.38;;;20.60;53.66
9839;BME280;4958;48.150;11.506;2023-10-09T08:10:03;95406.97;;;20.67;53.68
9839;BME280;4958;48.150;11.506;2023-10-09T08:12:51;95383.41;;;20.67;52.75
9839;BME280;4958;48.150;11.506;2023-10-09T08:15:45;95381.28;;;20.64;52.78
9839;BME280;4958;48.150;11.506;2023-10-09T08:18:19;95398.63;;;20.70;52.95
9839;BME280;4958;48.150;11.506;2023-10-09T08:21:02;95406.25;;;20.72;52.99
9839;BME280;4958;48.150;11.506;2023-10-09T08:24:06;95420.22;;;20.82;52.99
9839;BME280;4958;48.150;11.506;2023-10-09T08:26:55;95352.25;;;20.87;52.23
9839;BME280;4958;48.150;11.506;2023-10-09T08:29:58;95347.88;;;20.98;51.99
9839;BME280;4958;48.150;11.506;2023-10-09T08:32:53;95345.63;;;21.07;51.83
9839;BME280;4958;48.150;11.506;2023-10-09T08:35:27;95373.44;;;21.13;52.14
9839;BME280;4958;48.150;11.506;2023-10-09T08:37:55;95348.41;;;21.22;51.78
9839;BME280;4958;48.150;11.506;2023-10-09T08:40:29;95342.72;;;21.30;51.70
9839;BME280;4958;48.150;11.506;2023-10-09T08:43:03;95344.38;;;21.41;51.43
9839;BME280;4958;48.150;11.506;2023-10-09T08:45:39;95345.19;;;21.42;51.78
9839;BME280;4958;48.150;11.506;2023-10-09T08:48:10;95368.25;;;21.45;51.93
9839;BME280;4958;48.150;11.506;2023-10-09T08:50:42;95360.09;;;21.41;51.50
9839;BME280;4958;48.150;11.506;2023-10-09T08:53:10;95346.94;;;21.36;51.61
9839;BME280;4958;48.150;11.506;2023-10-09T08:55:40;95360.34;;;21.40;52.09
9839;BME280;4958;48.150;11.506;2023-10-09T08:58:07;95355.59;;;21.36;51.62
9839;BME280;4958;48.150;11.506;2023-10-09T09:00:42;95361.13;;;21.35;51.65
9839;BME280;4958;48.150;11.506;2023-10-09T09:03:12;95356.91;;;21.34;51.92
9839;BME280;4958;48.150;11.506;2023-10-09T09:05:46;95327.31;;;21.33;51.16
9839;BME280;4958;48.150;11.506;2023-10-09T09:08:24;95349.56;;;21.36;51.37
9839;BME280;4958;48.150;11.506;2023-10-09T09:10:59;95365.09;;;21.43;51.85
9839;BME280;4958;48.150;11.506;2023-10-09T09:13:39;95370.13;;;21.49;51.71
9839;BME280;4958;48.150;11.506;2023-10-09T09:16:19;95313.28;;;21.50;50.75
9839;BME280;4958;48.150;11.506;2023-10-09T09:18:50;95305.19;;;21.51;50.59
9839;BME280;4958;48.150;11.506;2023-10-09T09:21:26;95297.63;;;21.55;50.24
9839;BME280;4958;48.150;11.506;2023-10-09T09:23:59;95280.81;;;21.56;50.33
9839;BME280;4958;48.150;11.506;2023-10-09T09:26:38;95271.94;;;21.57;49.91
9839;BME280;4958;48.150;11.506;2023-10-09T09:29:10;95299.50;;;21.64;50.46
9839;BME280;4958;48.150;11.506;2023-10-09T09:31:38;95280.38;;;21.64;50.09
9839;BME280;4958;48.150;11.506;2023-10-09T09:34:09;95259.16;;;21.65;49.49
9839;BME280;4958;48.150;11.506;2023-10-09T09:36:53;95268.34;;;21.68;49.70
9839;BME280;4958;48.150;11.506;2023-10-09T09:39:22;95255.53;;;21.77;49.91
9839;BME280;4958;48.150;11.506;2023-10-09T09:41:59;95259.50;;;21.84;49.24
9839;BME280;4958;48.150;11.506;2023-10-09T09:44:31;95267.13;;;21.86;49.78
9839;BME280;4958;48.150;11.506;2023-10-09T09:47:00;95268.94;;;21.85;49.64
9839;BME280;4958;48.150;11.506;2023-10-09T09:49:32;95226.94;;;21.75;49.29
9839;BME280;4958;48.150;11.506;2023-10-09T09:52:01;95237.19;;;21.77;49.28
9839;BME280;4958;48.150;11.506;2023-10-09T09:54:35;95266.03;;;21.82;49.46
9839;BME280;4958;48.150;11.506;2023-10-09T09:57:03;95284.69;;;21.85;49.53
9839;BME280;4958;48.150;11.506;2023-10-09T09:59:37;95286.00;;;21.88;49.65
9839;BME280;4958;48.150;11.506;2023-10-09T10:02:10;95282.84;;;21.86;49.55
9839;BME280;4958;48.150;11.506;2023-10-09T10:04:46;95293.63;;;21.89;49.68
9839;BME280;4958;48.150;11.506;2023-10-09T10:07:15;95267.66;;;21.88;49.34
9839;BME280;4958;48.150;11.506;2023-10-09T10:09:42;95249.56;;;21.86;48.94
9839;BME280;4958;48.150;11.506;2023-10-09T10:12:10;95245.91;;;21.87;48.60
9839;BME280;4958;48.150;11.506;2023-10-09T10:14:58;95244.59;;;21.95;48.89
9839;BME280;4958;48.150;11.506;2023-10-09T10:18:06;95238.59;;;21.99;48.55
9839;BME280;4958;48.150;11.506;2023-10-09T10:21:10;95257.31;;;22.18;48.71
9839;BME280;4958;48.150;11.506;2023-10-09T10:23:41;95246.09;;;22.33;48.49
9839;BME280;4958;48.150;11.506;2023-10-09T10:26:19;95239.31;;;22.42;48.03
9839;BME280;4958;48.150;11.506;2023-10-09T10:29:14;95207.81;;;22.52;47.75
9839;BME280;4958;48.150;11.506;2023-10-09T10:31:54;95206.53;;;22.60;47.89
9839;BME280;4958;48.150;11.506;2023-10-09T10:34:23;95217.84;;;22.70;47.70
9839;BME280;4958;48.150;11.506;2023-10-09T10:36:50;95205.50;;;22.76;47.73
9839;BME280;4958;48.150;11.506;2023-10-09T10:39:18;95189.78;;;22.81;47.45
9839;BME280;4958;48.150;11.506;2023-10-09T10:41:55;95160.38;;;22.79;46.63
9839;BME280;4958;48.150;11.506;2023-10-09T10:44:29;95130.16;;;22.71;46.44
9839;BME280;4958;48.150;11.506;2023-10-09T10:47:04;95142.22;;;22.72;46.61
9839;BME280;4958;48.150;11.506;2023-10-09T10:49:32;95062.72;;;22.67;45.58
9839;BME280;4958;48.150;11.506;2023-10-09T10:52:03;95067.97;;;22.67;45.81
9839;BME280;4958;48.150;11.506;2023-10-09T10:54:41;95063.75;;;22.71;45.74
9839;BME280;4958;48.150;11.506;2023-10-09T10:57:35;95063.75;;;22.76;45.34
9839;BME280;4958;48.150;11.506;2023-10-09T11:00:18;95043.31;;;22.78;45.00
9839;BME280;4958;48.150;11.506;2023-10-09T11:02:59;95041.19;;;22.80;44.74
9839;BME280;4958;48.150;11.506;2023-10-09T11:05:41;95036.47;;;22.87;45.17
9839;BME280;4958;48.150;11.506;2023-10-09T11:08:09;95047.72;;;22.98;44.70
9839;BME280;4958;48.150;11.506;2023-10-09T11:10:36;95022.25;;;23.03;44.63
9839;BME280;4958;48.150;11.506;2023-10-09T11:13:20;95033.47;;;23.14;44.68
9839;BME280;4958;48.150;11.506;2023-10-09T11:16:00;95011.66;;;23.19;44.50
9839;BME280;4958;48.150;11.506;2023-10-09T11:18:54;95002.66;;;23.35;44.04
9839;BME280;4958;48.150;11.506;2023-10-09T11:21:23;94960.25;;;23.57;43.40
9839;BME280;4958;48.150;11.506;2023-10-09T11:24:08;94961.97;;;23.76;43.16
9839;BME280;4958;48.150;11.506;2023-10-09T11:26:58;94938.66;;;23.99;42.75
9839;BME280;4958;48.150;11.506;2023-10-09T11:29:30;94886.22;;;24.07;42.22
9839;BME280;4958;48.150;11.506;2023-10-09T11:32:18;94858.53;;;24.15;41.74
9839;BME280;4958;48.150;11.506;2023-10-09T11:34:48;94824.00;;;23.98;40.94
9839;BME280;4958;48.150;11.506;2023-10-09T11:37:19;94801.44;;;23.92;40.49
9839;BME280;4958;48.150;11.506;2023-10-09T11:40:04;94803.00;;;23.93;40.67
9839;BME280;4958;48.150;11.506;2023-10-09T11:42:49;94823.59;;;24.09;40.91
9839;BME280;4958;48.150;11.506;2023-10-09T11:45:20;94817.91;;;24.26;40.97
9839;BME280;4958;48.150;11.506;2023-10-09T11:47:51;94813.56;;;24.40;40.61
9839;BME280;4958;48.150;11.506;2023-10-09T11:50:41;94784.94;;;24.34;39.91
9839;BME280;4958;48.150;11.506;2023-10-09T11:53:18;94771.28;;;24.08;40.48
9839;BME280;4958;48.150;11.506;2023-10-09T11:55:59;94783.81;;;23.92;40.12
9839;BME280;4958;48.150;11.506;2023-10-09T11:58:25;94766.63;;;23.76;40.12
9839;BME280;4958;48.150;11.506;2023-10-09T12:00:52;94773.28;;;23.68;40.19
9839;BME280;4958;48.150;11.506;2023-10-09T12:03:23;94815.84;;;23.70;40.83
9839;BME280;4958;48.150;11.506;2023-10-09T12:05:54;94834.78;;;23.67;41.41
9839;BME280;4958;48.150;11.506;2023-10-09T12:08:23;94828.75;;;23.67;41.05
9839;BME280;4958;48.150;11.506;2023-10-09T12:10:52;94859.81;;;23.65;41.36
9839;BME280;4958;48.150;11.506;2023-10-09T12:13:20;94853.56;;;23.56;41.48
9839;BME280;4958;48.150;11.506;2023-10-09T12:15:47;94871.75;;;23.47;41.74
9839;BME280;4958;48.150;11.506;2023-10-09T12:18:14;94817.94;;;23.39;41.28
9839;BME280;4958;48.150;11.506;2023-10-09T12:20:41;94827.16;;;23.37;41.17
9839;BME280;4958;48.150;11.506;2023-10-09T12:23:15;94811.47;;;23.27;41.19
9839;BME280;4958;48.150;11.506;2023-10-09T12:25:43;94797.31;;;23.23;40.92
9839;BME280;4958;48.150;11.506;2023-10-09T12:28:11;94790.25;;;23.18;40.92
9839;BME280;4958;48.150;11.506;2023-10-09T12:30:39;94806.81;;;23.14;41.02
9839;BME280;4958;48.150;11.506;2023-10-09T12:33:06;94813.47;;;23.06;40.98
9839;BME280;4958;48.150;11.506;2023-10-09T12:35:36;94842.34;;;23.06;41.66
9839;BME280;4958;48.150;11.506;2023-10-09T12:38:03;94872.31;;;23.00;42.26
9839;BME280;4958;48.150;11.506;2023-10-09T12:40:34;94891.22;;;22.97;42.40
9839;BME280;4958;48.150;11.506;2023-10-09T12:43:02;94885.53;;;22.85;42.11
9839;BME280;4958;48.150;11.506;2023-10-09T12:45:33;94864.53;;;22.80;41.94
9839;BME280;4958;48.150;11.506;2023-10-09T12:48:00;94891.28;;;22.77;42.30
9839;BME280;4958;48.150;11.506;2023-10-09T12:50:28;94913.91;;;22.78;42.90
9839;BME280;4958;48.150;11.506;2023-10-09T12:52:59;94934.34;;;22.81;42.85
9839;BME280;4958;48.150;11.506;2023-10-09T12:55:34;94963.22;;;22.81;43.34
9839;BME280;4958;48.150;11.506;2023-10-09T12:58:03;94964.78;;;22.71;43.50
9839;BME280;4958;48.150;11.506;2023-10-09T13:00:32;94986.34;;;22.68;43.85
9839;BME280;4958;48.150;11.506;2023-10-09T13:03:04;94991.59;;;22.68;44.14
9839;BME280;4958;48.150;11.506;2023-10-09T13:05:45;95025.19;;;22.61;44.39
9839;BME280;4958;48.150;11.506;2023-10-09T13:08:19;94987.41;;;22.57;44.09
9839;BME280;4958;48.150;11.506;2023-10-09T13:10:52;94995.53;;;22.56;44.01
9839;BME280;4958;48.150;11.506;2023-10-09T13:13:29;94992.66;;;22.52;43.97
9839;BME280;4958;48.150;11.506;2023-10-09T13:16:06;94998.19;;;22.51;44.30
9839;BME280;4958;48.150;11.506;2023-10-09T13:18:32;94998.44;;;22.54;44.24
9839;BME280;4958;48.150;11.506;2023-10-09T13:20:59;95030.19;;;22.53;44.38
9839;BME280;4958;48.150;11.506;2023-10-09T13:23:28;95059.06;;;22.48;45.05
9839;BME280;4958;48.150;11.506;2023-10-09T13:26:04;95057.75;;;22.45;44.77
9839;BME280;4958;48.150;11.506;2023-10-09T13:28:47;95086.88;;;22.44;45.34
9839;BME280;4958;48.150;11.506;2023-10-09T13:31:14;95098.69;;;22.41;45.54
9839;BME280;4958;48.150;11.506;2023-10-09T13:33:41;95097.38;;;22.38;45.41
9839;BME280;4958;48.150;11.506;2023-10-09T13:36:08;95117.81;;;22.36;45.80
9839;BME280;4958;48.150;11.506;2023-10-09T13:38:42;95125.41;;;22.33;45.90
9839;BME280;4958;48.150;11.506;2023-10-09T13:41:09;95124.38;;;22.29;46.02
9839;BME280;4958;48.150;11.506;2023-10-09T13:43:38;95133.81;;;22.25;46.33
9839;BME280;4958;48.150;11.506;2023-10-09T13:46:08;95142.47;;;22.20;46.59
9839;BME280;4958;48.150;11.506;2023-10-09T13:48:35;95152.69;;;22.22;46.76